Vilas, Colorado
Current Conditions -  °F | °C
As of 1:53 AM on Wednesday 26 Nov 2014 (Local Time) from KLAA Reporting Station
Clear Clear  
Wind Chill: 22°   Ceiling: Unl
Heat Index: 30°   Visibility: 10mi
Dew Point: 26°   Wind: 8mph
Humidity: 85%   Direction: 10°N
Pressure: 30.13"   Gusts: NA
Location:  37.37°N, 102.45°W
Report Text: KLAA 260853Z AUTO 01007KT 10SM CLR M01/M03 A3013 RMK AO2 SLP200 T10111033 51033
Loading
Personal Weather Stations






























Interactive Weather Map New forecast layout! Learn more

10-Day Weather Forecast

Advertisements
Track Severe Weather on mobile